sensor_id;sensor_type;location;lat;lon;timestamp;temperature;humidity
23069;DHT22;11702;50.856;4.348;2022-10-31T00:01:23;15.00;99.90
23069;DHT22;11702;50.856;4.348;2022-10-31T00:03:49;15.00;99.90
23069;DHT22;11702;50.856;4.348;2022-10-31T00:06:15;14.90;99.90
23069;DHT22;11702;50.856;4.348;2022-10-31T00:08:55;14.90;99.90
23069;DHT22;11702;50.856;4.348;2022-10-31T00:11:21;14.90;99.90
23069;DHT22;11702;50.856;4.348;2022-10-31T00:13:47;14.80;99.90
23069;DHT22;11702;50.856;4.348;2022-10-31T00:16:17;14.80;99.90
23069;DHT22;11702;50.856;4.348;2022-10-31T00:18:43;14.90;99.90
23069;DHT22;11702;50.856;4.348;2022-10-31T00:21:11;14.90;99.90
23069;DHT22;11702;50.856;4.348;2022-10-31T00:23:36;14.90;99.90
23069;DHT22;11702;50.856;4.348;2022-10-31T00:26:03;14.90;99.90
23069;DHT22;11702;50.856;4.348;2022-10-31T00:28:29;14.80;99.90
23069;DHT22;11702;50.856;4.348;2022-10-31T00:30:59;14.80;99.90
23069;DHT22;11702;50.856;4.348;2022-10-31T00:33:25;14.70;99.90
23069;DHT22;11702;50.856;4.348;2022-10-31T00:35:51;14.70;99.90
23069;DHT22;11702;50.856;4.348;2022-10-31T00:38:16;14.60;99.90
23069;DHT22;11702;50.856;4.348;2022-10-31T00:40:42;14.60;99.90
23069;DHT22;11702;50.856;4.348;2022-10-31T00:43:07;14.60;99.90
23069;DHT22;11702;50.856;4.348;2022-10-31T00:45:33;14.60;99.90
23069;DHT22;11702;50.856;4.348;2022-10-31T00:47:59;14.50;99.90
23069;DHT22;11702;50.856;4.348;2022-10-31T00:50:24;14.40;99.90
23069;DHT22;11702;50.856;4.348;2022-10-31T00:52:50;14.30;99.90
23069;DHT22;11702;50.856;4.348;2022-10-31T00:55:15;14.20;99.90
23069;DHT22;11702;50.856;4.348;2022-10-31T00:57:41;14.20;99.90
23069;DHT22;11702;50.856;4.348;2022-10-31T01:00:08;14.10;99.90
23069;DHT22;11702;50.856;4.348;2022-10-31T01:02:34;14.00;99.90
23069;DHT22;11702;50.856;4.348;2022-10-31T01:04:59;14.00;99.90
23069;DHT22;11702;50.856;4.348;2022-10-31T01:07:25;13.90;99.90
23069;DHT22;11702;50.856;4.348;2022-10-31T01:09:51;13.90;99.90
23069;DHT22;11702;50.856;4.348;2022-10-31T01:12:16;13.90;99.90
23069;DHT22;11702;50.856;4.348;2022-10-31T01:14:46;13.80;99.90
23069;DHT22;11702;50.856;4.348;2022-10-31T01:17:12;13.80;99.90
23069;DHT22;11702;50.856;4.348;2022-10-31T01:19:38;13.80;99.90
23069;DHT22;11702;50.856;4.348;2022-10-31T01:22:04;13.80;99.90
23069;DHT22;11702;50.856;4.348;2022-10-31T01:24:30;13.80;99.90
23069;DHT22;11702;50.856;4.348;2022-10-31T01:26:55;13.80;99.90
23069;DHT22;11702;50.856;4.348;2022-10-31T01:29:21;13.90;99.90
23069;DHT22;11702;50.856;4.348;2022-10-31T01:31:47;13.90;99.90
23069;DHT22;11702;50.856;4.348;2022-10-31T01:34:15;13.90;99.90
23069;DHT22;11702;50.856;4.348;2022-10-31T01:36:42;13.90;99.90
23069;DHT22;11702;50.856;4.348;2022-10-31T01:39:13;13.90;99.90
23069;DHT22;11702;50.856;4.348;2022-10-31T01:41:42;13.90;99.90
23069;DHT22;11702;50.856;4.348;2022-10-31T01:47:03;13.80;99.90
23069;DHT22;11702;50.856;4.348;2022-10-31T01:54:39;13.70;99.90
23069;DHT22;11702;50.856;4.348;2022-10-31T01:57:08;13.60;99.90
23069;DHT22;11702;50.856;4.348;2022-10-31T01:59:40;13.60;99.90
23069;DHT22;11702;50.856;4.348;2022-10-31T02:02:08;13.60;99.90
23069;DHT22;11702;50.856;4.348;2022-10-31T02:04:35;13.50;99.90
23069;DHT22;11702;50.856;4.348;2022-10-31T02:07:02;13.50;99.90
23069;DHT22;11702;50.856;4.348;2022-10-31T02:09:30;13.50;99.90
23069;DHT22;11702;50.856;4.348;2022-10-31T02:11:59;13.40;99.90
23069;DHT22;11702;50.856;4.348;2022-10-31T02:14:28;13.40;99.90
23069;DHT22;11702;50.856;4.348;2022-10-31T02:16:54;13.40;99.90
23069;DHT22;11702;50.856;4.348;2022-10-31T02:19:40;13.30;99.90
23069;DHT22;11702;50.856;4.348;2022-10-31T02:25:15;13.20;99.90
23069;DHT22;11702;50.856;4.348;2022-10-31T02:28:10;13.20;99.90
23069;DHT22;11702;50.856;4.348;2022-10-31T02:33:20;13.10;99.90
23069;DHT22;11702;50.856;4.348;2022-10-31T02:38:35;13.10;99.90
23069;DHT22;11702;50.856;4.348;2022-10-31T02:41:25;13.10;99.90
23069;DHT22;11702;50.856;4.348;2022-10-31T02:51:52;13.00;99.90
23069;DHT22;11702;50.856;4.348;2022-10-31T02:54:27;13.00;99.90
23069;DHT22;11702;50.856;4.348;2022-10-31T02:57:06;12.90;99.90
23069;DHT22;11702;50.856;4.348;2022-10-31T02:59:33;12.90;99.90
23069;DHT22;11702;50.856;4.348;2022-10-31T03:02:18;13.00;99.90
23069;DHT22;11702;50.856;4.348;2022-10-31T03:08:08;12.90;99.90
23069;DHT22;11702;50.856;4.348;2022-10-31T03:19:10;12.80;99.90
23069;DHT22;11702;50.856;4.348;2022-10-31T03:21:53;12.80;99.90
23069;DHT22;11702;50.856;4.348;2022-10-31T03:24:23;12.70;99.90
23069;DHT22;11702;50.856;4.348;2022-10-31T03:26:53;12.70;99.90
23069;DHT22;11702;50.856;4.348;2022-10-31T03:29:21;12.70;99.90
23069;DHT22;11702;50.856;4.348;2022-10-31T03:31:59;12.80;99.90
23069;DHT22;11702;50.856;4.348;2022-10-31T03:34:26;12.70;99.90
23069;DHT22;11702;50.856;4.348;2022-10-31T03:36:55;12.70;99.90
23069;DHT22;11702;50.856;4.348;2022-10-31T03:39:23;12.70;99.90
23069;DHT22;11702;50.856;4.348;2022-10-31T03:42:04;12.60;99.90
23069;DHT22;11702;50.856;4.348;2022-10-31T03:44:32;12.60;99.90
23069;DHT22;11702;50.856;4.348;2022-10-31T03:46:58;12.60;99.90
23069;DHT22;11702;50.856;4.348;2022-10-31T03:49:24;12.60;99.90
23069;DHT22;11702;50.856;4.348;2022-10-31T03:52:04;12.60;99.90
23069;DHT22;11702;50.856;4.348;2022-10-31T03:57:29;12.60;99.90
23069;DHT22;11702;50.856;4.348;2022-10-31T04:00:05;12.60;99.90
23069;DHT22;11702;50.856;4.348;2022-10-31T04:02:33;12.60;99.90
23069;DHT22;11702;50.856;4.348;2022-10-31T04:05:00;12.60;99.90
23069;DHT22;11702;50.856;4.348;2022-10-31T04:07:29;12.60;99.90
23069;DHT22;11702;50.856;4.348;2022-10-31T04:09:56;12.60;99.90
23069;DHT22;11702;50.856;4.348;2022-10-31T04:12:24;12.50;99.90
23069;DHT22;11702;50.856;4.348;2022-10-31T04:14:50;12.40;99.90
23069;DHT22;11702;50.856;4.348;2022-10-31T04:17:19;12.50;99.90
23069;DHT22;11702;50.856;4.348;2022-10-31T04:19:45;12.50;99.90
23069;DHT22;11702;50.856;4.348;2022-10-31T04:22:11;12.40;99.90
23069;DHT22;11702;50.856;4.348;2022-10-31T04:24:39;12.40;99.90
23069;DHT22;11702;50.856;4.348;2022-10-31T04:27:04;12.40;99.90
23069;DHT22;11702;50.856;4.348;2022-10-31T04:29:30;12.50;99.90
23069;DHT22;11702;50.856;4.348;2022-10-31T04:31:56;12.50;99.90
23069;DHT22;11702;50.856;4.348;2022-10-31T04:34:21;12.40;99.90
23069;DHT22;11702;50.856;4.348;2022-10-31T04:36:47;12.40;99.90
23069;DHT22;11702;50.856;4.348;2022-10-31T04:39:12;12.60;99.90
23069;DHT22;11702;50.856;4.348;2022-10-31T04:41:38;12.60;99.90
23069;DHT22;11702;50.856;4.348;2022-10-31T04:44:04;12.60;99.90
23069;DHT22;11702;50.856;4.348;2022-10-31T04:46:29;12.60;99.90
23069;DHT22;11702;50.856;4.348;2022-10-31T04:48:55;12.60;99.90
23069;DHT22;11702;50.856;4.348;2022-10-31T04:51:21;12.70;99.90
23069;DHT22;11702;50.856;4.348;2022-10-31T04:53:47;12.80;99.90
23069;DHT22;11702;50.856;4.348;2022-10-31T04:56:12;12.90;99.90
23069;DHT22;11702;50.856;4.348;2022-10-31T04:58:38;12.90;99.90
23069;DHT22;11702;50.856;4.348;2022-10-31T05:01:04;12.80;99.90
23069;DHT22;11702;50.856;4.348;2022-10-31T05:03:29;12.80;99.90
23069;DHT22;11702;50.856;4.348;2022-10-31T05:05:58;12.80;99.90
23069;DHT22;11702;50.856;4.348;2022-10-31T05:08:23;12.70;99.90
23069;DHT22;11702;50.856;4.348;2022-10-31T05:10:49;12.70;99.90
23069;DHT22;11702;50.856;4.348;2022-10-31T05:13:14;12.70;99.90
23069;DHT22;11702;50.856;4.348;2022-10-31T05:15:41;12.70;99.90
23069;DHT22;11702;50.856;4.348;2022-10-31T05:18:06;12.70;99.90
23069;DHT22;11702;50.856;4.348;2022-10-31T05:20:32;12.80;99.90
23069;DHT22;11702;50.856;4.348;2022-10-31T05:22:59;12.90;99.90
23069;DHT22;11702;50.856;4.348;2022-10-31T05:25:26;12.90;99.90
23069;DHT22;11702;50.856;4.348;2022-10-31T05:27:53;12.90;99.90
23069;DHT22;11702;50.856;4.348;2022-10-31T05:30:22;12.90;99.90
23069;DHT22;11702;50.856;4.348;2022-10-31T05:32:49;13.00;99.90
23069;DHT22;11702;50.856;4.348;2022-10-31T05:35:17;13.10;99.90
23069;DHT22;11702;50.856;4.348;2022-10-31T05:37:43;13.00;99.90
23069;DHT22;11702;50.856;4.348;2022-10-31T05:40:11;13.00;99.90
23069;DHT22;11702;50.856;4.348;2022-10-31T05:42:38;13.00;99.90
23069;DHT22;11702;50.856;4.348;2022-10-31T05:45:04;13.00;99.90
23069;DHT22;11702;50.856;4.348;2022-10-31T05:47:30;12.90;99.90
23069;DHT22;11702;50.856;4.348;2022-10-31T05:49:56;12.90;99.90
23069;DHT22;11702;50.856;4.348;2022-10-31T05:52:21;12.90;99.90
23069;DHT22;11702;50.856;4.348;2022-10-31T05:54:47;12.90;99.90
23069;DHT22;11702;50.856;4.348;2022-10-31T05:57:12;13.00;99.90
23069;DHT22;11702;50.856;4.348;2022-10-31T05:59:38;13.10;99.90
23069;DHT22;11702;50.856;4.348;2022-10-31T06:02:04;13.10;99.90
23069;DHT22;11702;50.856;4.348;2022-10-31T06:04:29;13.20;99.90
23069;DHT22;11702;50.856;4.348;2022-10-31T06:06:56;13.10;99.90
23069;DHT22;11702;50.856;4.348;2022-10-31T06:09:22;13.20;99.90
23069;DHT22;11702;50.856;4.348;2022-10-31T06:11:47;13.30;99.90
23069;DHT22;11702;50.856;4.348;2022-10-31T06:14:13;13.30;99.90
23069;DHT22;11702;50.856;4.348;2022-10-31T06:16:38;13.40;99.90
23069;DHT22;11702;50.856;4.348;2022-10-31T06:19:04;13.50;99.90
23069;DHT22;11702;50.856;4.348;2022-10-31T06:21:30;13.50;99.90
23069;DHT22;11702;50.856;4.348;2022-10-31T06:23:55;13.70;99.90
23069;DHT22;11702;50.856;4.348;2022-10-31T06:26:21;13.70;99.90
23069;DHT22;11702;50.856;4.348;2022-10-31T06:28:47;13.90;99.90
23069;DHT22;11702;50.856;4.348;2022-10-31T06:31:12;14.00;99.90
23069;DHT22;11702;50.856;4.348;2022-10-31T06:33:40;14.00;99.90
23069;DHT22;11702;50.856;4.348;2022-10-31T06:36:05;14.00;99.90
23069;DHT22;11702;50.856;4.348;2022-10-31T06:38:31;14.10;99.90
23069;DHT22;11702;50.856;4.348;2022-10-31T06:40:57;14.10;99.90
23069;DHT22;11702;50.856;4.348;2022-10-31T06:43:23;14.10;99.90
23069;DHT22;11702;50.856;4.348;2022-10-31T06:45:49;14.20;99.90
23069;DHT22;11702;50.856;4.348;2022-10-31T06:48:14;14.30;99.90
23069;DHT22;11702;50.856;4.348;2022-10-31T06:50:40;14.40;99.90
23069;DHT22;11702;50.856;4.348;2022-10-31T06:53:05;14.30;99.90
23069;DHT22;11702;50.856;4.348;2022-10-31T06:55:31;14.40;99.90
23069;DHT22;11702;50.856;4.348;2022-10-31T06:58:00;14.30;99.90
23069;DHT22;11702;50.856;4.348;2022-10-31T07:00:28;14.30;99.90
23069;DHT22;11702;50.856;4.348;2022-10-31T07:03:02;14.30;99.90
23069;DHT22;11702;50.856;4.348;2022-10-31T07:05:28;14.10;99.90
23069;DHT22;11702;50.856;4.348;2022-10-31T07:07:56;14.10;99.90
23069;DHT22;11702;50.856;4.348;2022-10-31T07:10:24;14.20;99.90
23069;DHT22;11702;50.856;4.348;2022-10-31T07:12:58;14.10;99.90
23069;DHT22;11702;50.856;4.348;2022-10-31T07:15:25;14.10;99.90
23069;DHT22;11702;50.856;4.348;2022-10-31T07:17:51;14.10;99.90
23069;DHT22;11702;50.856;4.348;2022-10-31T07:20:17;14.10;99.90
23069;DHT22;11702;50.856;4.348;2022-10-31T07:22:42;14.10;99.90
23069;DHT22;11702;50.856;4.348;2022-10-31T07:25:10;14.10;99.90
23069;DHT22;11702;50.856;4.348;2022-10-31T07:27:37;14.20;99.90
23069;DHT22;11702;50.856;4.348;2022-10-31T07:30:04;14.30;99.90
23069;DHT22;11702;50.856;4.348;2022-10-31T07:32:40;14.40;99.90
23069;DHT22;11702;50.856;4.348;2022-10-31T07:35:08;14.30;99.90
23069;DHT22;11702;50.856;4.348;2022-10-31T07:37:34;14.40;99.90
23069;DHT22;11702;50.856;4.348;2022-10-31T07:40:00;14.30;99.90
23069;DHT22;11702;50.856;4.348;2022-10-31T07:42:25;14.40;99.90
23069;DHT22;11702;50.856;4.348;2022-10-31T07:44:51;14.30;99.90
23069;DHT22;11702;50.856;4.348;2022-10-31T07:47:17;14.30;99.90
23069;DHT22;11702;50.856;4.348;2022-10-31T07:49:42;14.30;99.90
23069;DHT22;11702;50.856;4.348;2022-10-31T07:52:08;14.30;99.90
23069;DHT22;11702;50.856;4.348;2022-10-31T07:54:33;14.20;99.90
23069;DHT22;11702;50.856;4.348;2022-10-31T07:56:59;14.20;99.90
23069;DHT22;11702;50.856;4.348;2022-10-31T07:59:24;14.40;99.90
23069;DHT22;11702;50.856;4.348;2022-10-31T08:01:51;14.40;99.90
23069;DHT22;11702;50.856;4.348;2022-10-31T08:04:16;14.50;99.90
23069;DHT22;11702;50.856;4.348;2022-10-31T08:06:42;14.60;99.90
23069;DHT22;11702;50.856;4.348;2022-10-31T08:09:07;14.70;99.90
23069;DHT22;11702;50.856;4.348;2022-10-31T08:11:33;14.70;99.90
23069;DHT22;11702;50.856;4.348;2022-10-31T08:13:59;14.60;99.90
23069;DHT22;11702;50.856;4.348;2022-10-31T08:16:24;14.60;99.90
23069;DHT22;11702;50.856;4.348;2022-10-31T08:18:50;14.60;99.90
23069;DHT22;11702;50.856;4.348;2022-10-31T08:21:15;14.70;99.90
23069;DHT22;11702;50.856;4.348;2022-10-31T08:23:41;14.70;99.90
23069;DHT22;11702;50.856;4.348;2022-10-31T08:26:07;14.80;99.90
23069;DHT22;11702;50.856;4.348;2022-10-31T08:28:32;14.80;99.90
23069;DHT22;11702;50.856;4.348;2022-10-31T08:30:58;14.90;99.90
23069;DHT22;11702;50.856;4.348;2022-10-31T08:33:24;15.00;99.90
23069;DHT22;11702;50.856;4.348;2022-10-31T08:35:49;14.90;99.90
23069;DHT22;11702;50.856;4.348;2022-10-31T08:38:15;14.90;99.90
23069;DHT22;11702;50.856;4.348;2022-10-31T08:40:41;14.70;99.90
23069;DHT22;11702;50.856;4.348;2022-10-31T08:43:12;14.80;99.90
23069;DHT22;11702;50.856;4.348;2022-10-31T08:45:39;14.80;99.90
23069;DHT22;11702;50.856;4.348;2022-10-31T08:48:06;14.80;99.90
23069;DHT22;11702;50.856;4.348;2022-10-31T08:50:34;14.70;99.90
23069;DHT22;11702;50.856;4.348;2022-10-31T08:53:05;14.70;99.90
23069;DHT22;11702;50.856;4.348;2022-10-31T08:55:33;14.80;99.90
23069;DHT22;11702;50.856;4.348;2022-10-31T08:57:59;14.90;99.90
23069;DHT22;11702;50.856;4.348;2022-10-31T09:00:25;15.10;99.90
23069;DHT22;11702;50.856;4.348;2022-10-31T09:03:00;15.30;99.90
23069;DHT22;11702;50.856;4.348;2022-10-31T09:05:27;15.30;99.90
23069;DHT22;11702;50.856;4.348;2022-10-31T09:07:59;15.50;99.90
23069;DHT22;11702;50.856;4.348;2022-10-31T09:10:26;15.60;99.90
23069;DHT22;11702;50.856;4.348;2022-10-31T09:13:15;15.60;99.90
23069;DHT22;11702;50.856;4.348;2022-10-31T09:15:43;15.50;99.90
23069;DHT22;11702;50.856;4.348;2022-10-31T09:18:10;15.50;99.90
23069;DHT22;11702;50.856;4.348;2022-10-31T09:20:37;15.50;99.90
23069;DHT22;11702;50.856;4.348;2022-10-31T09:23:06;15.60;99.90
23069;DHT22;11702;50.856;4.348;2022-10-31T09:25:33;15.70;99.90
23069;DHT22;11702;50.856;4.348;2022-10-31T09:28:00;15.80;99.90
23069;DHT22;11702;50.856;4.348;2022-10-31T09:30:27;15.90;99.90
23069;DHT22;11702;50.856;4.348;2022-10-31T09:32:58;16.00;99.90
23069;DHT22;11702;50.856;4.348;2022-10-31T09:35:24;16.00;99.90
23069;DHT22;11702;50.856;4.348;2022-10-31T09:38:04;16.20;99.90
23069;DHT22;11702;50.856;4.348;2022-10-31T09:40:50;16.20;99.90
23069;DHT22;11702;50.856;4.348;2022-10-31T09:43:36;16.40;99.90
23069;DHT22;11702;50.856;4.348;2022-10-31T09:48:54;16.20;99.90
23069;DHT22;11702;50.856;4.348;2022-10-31T09:51:36;16.10;99.90
23069;DHT22;11702;50.856;4.348;2022-10-31T09:56:36;16.20;99.90
23069;DHT22;11702;50.856;4.348;2022-10-31T09:59:05;16.40;99.90
23069;DHT22;11702;50.856;4.348;2022-10-31T10:07:32;17.00;99.90
23069;DHT22;11702;50.856;4.348;2022-10-31T10:10:12;17.20;99.90
23069;DHT22;11702;50.856;4.348;2022-10-31T10:13:10;17.20;99.90
23069;DHT22;11702;50.856;4.348;2022-10-31T10:16:12;17.50;99.90
23069;DHT22;11702;50.856;4.348;2022-10-31T10:19:10;17.70;99.90
23069;DHT22;11702;50.856;4.348;2022-10-31T10:24:25;17.70;99.90
23069;DHT22;11702;50.856;4.348;2022-10-31T10:27:22;17.80;99.90
23069;DHT22;11702;50.856;4.348;2022-10-31T10:30:11;17.90;99.90
23069;DHT22;11702;50.856;4.348;2022-10-31T10:33:00;17.90;99.90
23069;DHT22;11702;50.856;4.348;2022-10-31T10:35:34;17.90;99.90
23069;DHT22;11702;50.856;4.348;2022-10-31T10:40:34;17.80;99.90
23069;DHT22;11702;50.856;4.348;2022-10-31T10:43:21;17.70;99.90
23069;DHT22;11702;50.856;4.348;2022-10-31T10:49:16;17.90;99.90
23069;DHT22;11702;50.856;4.348;2022-10-31T10:52:27;17.90;99.90
23069;DHT22;11702;50.856;4.348;2022-10-31T10:55:23;17.90;99.90
23069;DHT22;11702;50.856;4.348;2022-10-31T10:57:58;17.90;99.90
23069;DHT22;11702;50.856;4.348;2022-10-31T11:00:26;17.80;99.90
23069;DHT22;11702;50.856;4.348;2022-10-31T11:02:53;17.80;99.90
23069;DHT22;11702;50.856;4.348;2022-10-31T11:05:41;17.80;99.90
23069;DHT22;11702;50.856;4.348;2022-10-31T11:08:10;18.00;99.90
23069;DHT22;11702;50.856;4.348;2022-10-31T11:10:36;18.20;99.90
23069;DHT22;11702;50.856;4.348;2022-10-31T11:13:14;18.10;99.90
23069;DHT22;11702;50.856;4.348;2022-10-31T11:18:47;18.30;99.90
23069;DHT22;11702;50.856;4.348;2022-10-31T11:21:25;18.30;99.90
23069;DHT22;11702;50.856;4.348;2022-10-31T11:24:03;18.50;99.90
23069;DHT22;11702;50.856;4.348;2022-10-31T11:26:28;18.70;99.90
23069;DHT22;11702;50.856;4.348;2022-10-31T11:28:58;18.40;99.90
23069;DHT22;11702;50.856;4.348;2022-10-31T11:31:25;18.60;99.90
23069;DHT22;11702;50.856;4.348;2022-10-31T11:34:03;18.40;99.90
23069;DHT22;11702;50.856;4.348;2022-10-31T11:36:31;18.10;99.90
23069;DHT22;11702;50.856;4.348;2022-10-31T11:39:00;18.10;99.90
23069;DHT22;11702;50.856;4.348;2022-10-31T11:41:30;18.00;99.90
23069;DHT22;11702;50.856;4.348;2022-10-31T11:44:19;18.10;99.90
23069;DHT22;11702;50.856;4.348;2022-10-31T11:46:51;18.10;99.90
23069;DHT22;11702;50.856;4.348;2022-10-31T11:49:35;18.20;99.90
23069;DHT22;11702;50.856;4.348;2022-10-31T11:52:17;18.00;99.90
23069;DHT22;11702;50.856;4.348;2022-10-31T11:54:55;18.20;99.90
23069;DHT22;11702;50.856;4.348;2022-10-31T11:57:32;18.40;99.90
23069;DHT22;11702;50.856;4.348;2022-10-31T12:00:01;18.50;99.90
23069;DHT22;11702;50.856;4.348;2022-10-31T12:02:28;18.50;99.90
23069;DHT22;11702;50.856;4.348;2022-10-31T12:05:09;18.70;99.90
23069;DHT22;11702;50.856;4.348;2022-10-31T12:07:36;18.50;99.90
23069;DHT22;11702;50.856;4.348;2022-10-31T12:10:10;18.50;99.90
23069;DHT22;11702;50.856;4.348;2022-10-31T12:15:34;18.60;99.90
23069;DHT22;11702;50.856;4.348;2022-10-31T12:35:00;18.40;99.90
23069;DHT22;11702;50.856;4.348;2022-10-31T12:45:56;18.60;99.90
23069;DHT22;11702;50.856;4.348;2022-10-31T12:51:13;18.90;99.90
23069;DHT22;11702;50.856;4.348;2022-10-31T13:02:18;18.90;99.90
23069;DHT22;11702;50.856;4.348;2022-10-31T13:05:41;18.90;99.90
23069;DHT22;11702;50.856;4.348;2022-10-31T13:07:45;19.00;99.90
23069;DHT22;11702;50.856;4.348;2022-10-31T13:10:29;19.10;99.90
23069;DHT22;11702;50.856;4.348;2022-10-31T13:13:01;19.40;99.90
23069;DHT22;11702;50.856;4.348;2022-10-31T13:15:33;19.40;99.90
23069;DHT22;11702;50.856;4.348;2022-10-31T13:18:05;19.30;99.90
23069;DHT22;11702;50.856;4.348;2022-10-31T13:20:40;19.50;99.90
23069;DHT22;11702;50.856;4.348;2022-10-31T13:23:31;19.20;99.90
23069;DHT22;11702;50.856;4.348;2022-10-31T13:26:01;19.20;99.90
23069;DHT22;11702;50.856;4.348;2022-10-31T13:31:08;19.10;99.90
23069;DHT22;11702;50.856;4.348;2022-10-31T13:33:51;19.00;99.90
23069;DHT22;11702;50.856;4.348;2022-10-31T13:36:31;18.90;99.90
23069;DHT22;11702;50.856;4.348;2022-10-31T13:41:48;19.00;99.90
23069;DHT22;11702;50.856;4.348;2022-10-31T13:44:24;19.00;99.90
23069;DHT22;11702;50.856;4.348;2022-10-31T13:46:52;19.00;99.90
23069;DHT22;11702;50.856;4.348;2022-10-31T13:51:49;19.10;99.90
23069;DHT22;11702;50.856;4.348;2022-10-31T13:54:22;19.10;99.90
23069;DHT22;11702;50.856;4.348;2022-10-31T13:56:51;19.00;99.90
23069;DHT22;11702;50.856;4.348;2022-10-31T13:59:23;18.80;99.90
23069;DHT22;11702;50.856;4.348;2022-10-31T14:04:26;18.70;99.90
23069;DHT22;11702;50.856;4.348;2022-10-31T14:07:08;18.80;99.90
23069;DHT22;11702;50.856;4.348;2022-10-31T14:09:36;18.80;99.90
23069;DHT22;11702;50.856;4.348;2022-10-31T14:12:06;18.90;99.90
23069;DHT22;11702;50.856;4.348;2022-10-31T14:14:48;18.90;99.90
23069;DHT22;11702;50.856;4.348;2022-10-31T14:17:22;19.00;99.90
23069;DHT22;11702;50.856;4.348;2022-10-31T14:20:00;18.90;99.90
23069;DHT22;11702;50.856;4.348;2022-10-31T14:22:32;19.00;99.90
23069;DHT22;11702;50.856;4.348;2022-10-31T14:24:58;19.00;99.90
23069;DHT22;11702;50.856;4.348;2022-10-31T14:29:53;19.00;99.90
23069;DHT22;11702;50.856;4.348;2022-10-31T14:32:26;19.10;99.90
23069;DHT22;11702;50.856;4.348;2022-10-31T14:34:58;19.20;99.90
23069;DHT22;11702;50.856;4.348;2022-10-31T14:40:05;19.10;99.90
23069;DHT22;11702;50.856;4.348;2022-10-31T14:50:58;19.00;99.90
23069;DHT22;11702;50.856;4.348;2022-10-31T14:55:54;19.00;99.90
23069;DHT22;11702;50.856;4.348;2022-10-31T14:58:36;19.00;99.90
23069;DHT22;11702;50.856;4.348;2022-10-31T15:01:03;19.00;99.90
23069;DHT22;11702;50.856;4.348;2022-10-31T15:03:35;19.00;99.90
23069;DHT22;11702;50.856;4.348;2022-10-31T15:06:12;19.10;99.90
23069;DHT22;11702;50.856;4.348;2022-10-31T15:08:40;19.00;99.90
23069;DHT22;11702;50.856;4.348;2022-10-31T15:11:20;19.00;99.90
23069;DHT22;11702;50.856;4.348;2022-10-31T15:13:51;19.00;99.90
23069;DHT22;11702;50.856;4.348;2022-10-31T15:16:33;18.90;99.90
23069;DHT22;11702;50.856;4.348;2022-10-31T15:19:03;18.80;99.90
23069;DHT22;11702;50.856;4.348;2022-10-31T15:21:29;18.70;99.90
23069;DHT22;11702;50.856;4.348;2022-10-31T15:23:57;18.70;99.90
23069;DHT22;11702;50.856;4.348;2022-10-31T15:26:35;18.60;99.90
23069;DHT22;11702;50.856;4.348;2022-10-31T15:29:04;18.60;99.90
23069;DHT22;11702;50.856;4.348;2022-10-31T15:31:31;18.60;99.90
23069;DHT22;11702;50.856;4.348;2022-10-31T15:34:15;18.50;99.90
23069;DHT22;11702;50.856;4.348;2022-10-31T15:36:41;18.40;99.90
23069;DHT22;11702;50.856;4.348;2022-10-31T15:39:11;18.30;99.90
23069;DHT22;11702;50.856;4.348;2022-10-31T15:41:56;18.20;99.90
23069;DHT22;11702;50.856;4.348;2022-10-31T15:44:37;18.00;99.90
23069;DHT22;11702;50.856;4.348;2022-10-31T15:47:19;18.00;99.90
23069;DHT22;11702;50.856;4.348;2022-10-31T15:49:54;17.90;99.90
23069;DHT22;11702;50.856;4.348;2022-10-31T15:52:42;17.70;99.90
23069;DHT22;11702;50.856;4.348;2022-10-31T15:57:40;17.70;99.90
23069;DHT22;11702;50.856;4.348;2022-10-31T16:02:49;17.70;99.90
23069;DHT22;11702;50.856;4.348;2022-10-31T16:05:18;17.60;99.90
23069;DHT22;11702;50.856;4.348;2022-10-31T16:07:51;17.50;99.90
23069;DHT22;11702;50.856;4.348;2022-10-31T16:10:26;17.50;99.90
23069;DHT22;11702;50.856;4.348;2022-10-31T16:12:52;17.50;99.90
23069;DHT22;11702;50.856;4.348;2022-10-31T16:15:20;17.40;99.90
23069;DHT22;11702;50.856;4.348;2022-10-31T16:17:50;17.30;99.90
23069;DHT22;11702;50.856;4.348;2022-10-31T16:20:22;17.30;99.90
23069;DHT22;11702;50.856;4.348;2022-10-31T16:22:49;17.30;99.90
23069;DHT22;11702;50.856;4.348;2022-10-31T16:25:35;17.30;99.90
23069;DHT22;11702;50.856;4.348;2022-10-31T16:28:05;17.30;99.90
23069;DHT22;11702;50.856;4.348;2022-10-31T16:30:43;17.30;99.90
23069;DHT22;11702;50.856;4.348;2022-10-31T16:35:50;17.20;99.90
23069;DHT22;11702;50.856;4.348;2022-10-31T16:38:15;17.10;99.90
23069;DHT22;11702;50.856;4.348;2022-10-31T16:40:41;17.10;99.90
23069;DHT22;11702;50.856;4.348;2022-10-31T16:43:13;17.10;99.90
23069;DHT22;11702;50.856;4.348;2022-10-31T16:45:57;17.00;99.90
23069;DHT22;11702;50.856;4.348;2022-10-31T16:48:23;17.00;99.90
23069;DHT22;11702;50.856;4.348;2022-10-31T16:50:52;17.00;99.90
23069;DHT22;11702;50.856;4.348;2022-10-31T16:53:18;16.90;99.90
23069;DHT22;11702;50.856;4.348;2022-10-31T16:58:17;16.80;99.90
23069;DHT22;11702;50.856;4.348;2022-10-31T17:00:44;16.80;99.90
23069;DHT22;11702;50.856;4.348;2022-10-31T17:03:10;16.80;99.90
23069;DHT22;11702;50.856;4.348;2022-10-31T17:05:36;16.80;99.90
23069;DHT22;11702;50.856;4.348;2022-10-31T17:08:03;16.70;99.90
23069;DHT22;11702;50.856;4.348;2022-10-31T17:10:28;16.70;99.90
23069;DHT22;11702;50.856;4.348;2022-10-31T17:12:54;16.70;99.90
23069;DHT22;11702;50.856;4.348;2022-10-31T17:15:27;16.60;99.90
23069;DHT22;11702;50.856;4.348;2022-10-31T17:17:53;16.70;99.90
23069;DHT22;11702;50.856;4.348;2022-10-31T17:22:44;16.70;99.90
23069;DHT22;11702;50.856;4.348;2022-10-31T17:25:21;16.70;99.90
23069;DHT22;11702;50.856;4.348;2022-10-31T17:27:48;16.70;99.90
23069;DHT22;11702;50.856;4.348;2022-10-31T17:30:14;16.70;99.90
23069;DHT22;11702;50.856;4.348;2022-10-31T17:32:41;16.70;99.90
23069;DHT22;11702;50.856;4.348;2022-10-31T17:35:08;16.80;99.90
23069;DHT22;11702;50.856;4.348;2022-10-31T17:37:34;16.80;99.90
23069;DHT22;11702;50.856;4.348;2022-10-31T17:40:00;16.70;99.90
23069;DHT22;11702;50.856;4.348;2022-10-31T17:42:26;16.70;99.90
23069;DHT22;11702;50.856;4.348;2022-10-31T17:44:52;16.70;99.90
23069;DHT22;11702;50.856;4.348;2022-10-31T17:47:17;16.80;99.90
23069;DHT22;11702;50.856;4.348;2022-10-31T17:49:43;16.70;99.90
23069;DHT22;11702;50.856;4.348;2022-10-31T17:52:08;16.80;99.90
23069;DHT22;11702;50.856;4.348;2022-10-31T17:54:34;16.80;99.90
23069;DHT22;11702;50.856;4.348;2022-10-31T17:57:00;16.80;99.90
23069;DHT22;11702;50.856;4.348;2022-10-31T17:59:25;16.80;99.90
23069;DHT22;11702;50.856;4.348;2022-10-31T18:01:54;16.80;99.90
23069;DHT22;11702;50.856;4.348;2022-10-31T18:04:20;16.70;99.90
23069;DHT22;11702;50.856;4.348;2022-10-31T18:06:46;16.80;99.90
23069;DHT22;11702;50.856;4.348;2022-10-31T18:09:14;16.80;99.90